Bookmark and Share
Track history (hours):
 

Rms Voerde

Last reported at 2013-Sep-20 08:21 UTC. Time now 2014-Apr-24 13:48 UTC.
Position S 28°54' E 032°21'.
Warning: this ship's position is months out of date.

Length 90 m; draft 3.7 m.

Type: Cargo ship. MMSI: 304010905.

NotesDate/timePositionNaut miles runAvg speedWind from/ knotsBaromVisibWave heightAir tempDewpointWater temp
2013-Sep-20 08:21S 28°54' E 032°21'5 4.7
2013-Sep-20 07:14S 28°59' E 032°19'3 4.4
2013-Sep-20 06:33S 29°02' E 032°17'5 4.7
2013-Sep-20 05:33S 29°06' E 032°14'5 5.2
2013-Sep-20 04:33S 29°09' E 032°09'5 5.2
2013-Sep-20 03:33S 29°12' E 032°05'7 6.6
2013-Sep-20 02:33S 29°16' E 031°58'8 8.1
2013-Sep-20 01:33S 29°20' E 031°51'8 8.2
2013-Sep-20 00:33S 29°25' E 031°43'8 8.3
2013-Sep-19 23:33S 29°30' E 031°35'8 8.1
2013-Sep-19 22:33S 29°35' E 031°28'8 7.7
2013-Sep-19 21:33S 29°40' E 031°21'7 7.4
2013-Sep-19 20:33S 29°45' E 031°15'7 7.4
2013-Sep-19 19:33S 29°49' E 031°08'7 6.9
2013-Sep-19 18:33S 29°52' E 031°01'1 0.8
2013-Sep-19 17:23S 29°53' E 031°00'0 0.0
2013-Sep-19 16:22S 29°53' E 031°00'0 0.0
2013-Sep-19 15:28S 29°53' E 031°00'0 0.0
2013-Sep-19 14:27S 29°53' E 031°00'0 0.0
2013-Sep-19 13:33S 29°53' E 031°00'0 0.0
2013-Sep-19 12:21S 29°53' E 031°00'0 0.0
2013-Sep-19 11:14S 29°53' E 031°00'0 0.0
2013-Sep-19 10:26S 29°53' E 031°00'0 0.0
2013-Sep-19 09:19S 29°53' E 031°00'0 0.0
2013-Sep-19 08:31S 29°53' E 031°00'0 0.0
2013-Sep-19 07:24S 29°53' E 031°00'0 0.0
2013-Sep-19 06:30S 29°53' E 031°00'0 0.0
2013-Sep-19 05:11S 29°53' E 031°00'0 0.0
2013-Sep-19 04:17S 29°53' E 031°00'0 0.0
2013-Sep-19 03:23S 29°53' E 031°00'0 0.0
2013-Sep-19 02:28S 29°53' E 031°00'0 0.0
2013-Sep-19 01:33S 29°53' E 031°00'2 2.0
2013-Sep-19 00:33S 29°53' E 031°02'4 4.3
2013-Sep-18 23:33S 29°49' E 031°05'2 1.7
2013-Sep-18 22:33S 29°47' E 031°06'3 1.5
2013-Sep-18 20:30S 29°44' E 031°06'0 0.0
2013-Sep-18 19:23S 29°44' E 031°06'0 0.0
2013-Sep-18 18:23S 29°44' E 031°06'0 0.0
2013-Sep-18 17:16S 29°44' E 031°06'0 0.0
2013-Sep-18 15:33S 29°44' E 031°06'0 0.0
2013-Sep-18 14:33S 29°44' E 031°06'0 0.0
2013-Sep-18 13:33S 29°44' E 031°06'0 0.0
2013-Sep-18 12:32S 29°44' E 031°06'0 0.0
2013-Sep-18 11:32S 29°44' E 031°06'4 3.6
2013-Sep-18 10:33S 29°44' E 031°10'10 9.6
2013-Sep-18 09:33S 29°40' E 031°21'9 9.5
2013-Sep-18 08:33S 29°34' E 031°29'9 9.6
2013-Sep-18 07:33S 29°28' E 031°37'10 9.6
2013-Sep-18 06:30S 29°22' E 031°46'  

Dump ship's entire track history

sailing weather and tide predictions

Rms Voerde — V2AD8 — position and weather